Time;durP1;ratioP1;P1;durP2;ratioP2;P2;SDS_P1;SDS_P2;PMS_P1;PMS_P2;Temp;Humidity;BMP_temperature;BMP_pressure;BME280_temperature;BME280_humidity;BME280_pressure;Samples;Min_cycle;Max_cycle;Signal;HPM_P1;HPM_P2
2023/03/05 00:00:47;;;;;;;0.87;0.87;;;;;;;;;;6246673;28;20087;-78
2023/03/05 00:03:48;;;;;;;1.93;1.93;;;;;;;;;;6237849;28;20037;-79
2023/03/05 00:06:49;;;;;;;0.80;0.80;;;;;;;;;;6227799;28;20449;-79
2023/03/05 00:09:49;;;;;;;0.57;0.57;;;;;;;;;;6245613;28;20080;-79
2023/03/05 00:12:50;;;;;;;0.63;0.63;;;;;;;;;;6229688;28;20454;-79
2023/03/05 00:15:50;;;;;;;0.97;0.90;;;;;;;;;;6251464;28;20049;-78
2023/03/05 00:18:51;;;;;;;1.50;1.50;;;;;;;;;;6250335;28;20022;-78
2023/03/05 00:21:51;;;;;;;4.03;3.63;;;;;;;;;;6254209;28;20021;-79
2023/03/05 00:24:51;;;;;;;1.23;1.20;;;;;;;;;;6247139;28;20037;-79
2023/03/05 00:27:51;;;;;;;0.87;0.87;;;;;;;;;;6248466;28;20041;-79
2023/03/05 00:30:52;;;;;;;0.30;0.30;;;;;;;;;;6232463;28;20051;-78
2023/03/05 00:33:53;;;;;;;0.20;0.20;;;;;;;;;;6247644;28;20076;-78
2023/03/05 00:36:53;;;;;;;1.50;0.97;;;;;;;;;;6259035;28;20475;-77
2023/03/05 00:39:53;;;;;;;0.20;0.20;;;;;;;;;;6246461;28;20391;-78
2023/03/05 00:42:54;;;;;;;0.30;0.30;;;;;;;;;;6245749;28;20009;-78
2023/03/05 00:45:55;;;;;;;0.20;0.20;;;;;;;;;;6254241;28;20534;-78
2023/03/05 00:48:55;;;;;;;0.80;0.80;;;;;;;;;;6253913;28;20041;-78
2023/03/05 00:51:55;;;;;;;0.97;0.93;;;;;;;;;;6247755;28;20017;-78
2023/03/05 00:54:56;;;;;;;1.00;1.00;;;;;;;;;;6255192;28;20032;-78
2023/03/05 00:57:56;;;;;;;2.80;2.63;;;;;;;;;;6234932;28;20419;-78
2023/03/05 01:00:58;;;;;;;0.93;0.93;;;;;;;;;;6248496;28;20083;-79
2023/03/05 01:04:00;;;;;;;0.65;0.65;;;;;;;;;;6229039;28;20030;-78
2023/03/05 01:07:02;;;;;;;1.95;1.85;;;;;;;;;;6256425;28;20456;-78
2023/03/05 01:10:03;;;;;;;3.60;2.60;;;;;;;;;;6242854;28;20501;-79
2023/03/05 01:13:03;;;;;;;1.35;1.33;;;;;;;;;;6246644;28;20049;-79
2023/03/05 01:16:03;;;;;;;0.40;0.40;;;;;;;;;;6214776;28;20051;-78
2023/03/05 01:19:04;;;;;;;0.93;0.93;;;;;;;;;;6244329;28;20026;-78
2023/03/05 01:22:04;;;;;;;1.60;1.50;;;;;;;;;;6245568;28;20112;-77
2023/03/05 01:25:06;;;;;;;0.80;0.80;;;;;;;;;;6253422;28;20104;-78
2023/03/05 01:28:07;;;;;;;0.30;0.30;;;;;;;;;;6249546;28;20045;-78
2023/03/05 01:31:10;;;;;;;0.30;0.30;;;;;;;;;;6245029;28;20412;-78
2023/03/05 01:34:10;;;;;;;0.70;0.70;;;;;;;;;;6228994;28;20499;-78
2023/03/05 01:37:12;;;;;;;1.47;1.40;;;;;;;;;;6244483;28;20021;-78
2023/03/05 01:40:13;;;;;;;0.40;0.40;;;;;;;;;;6244832;28;20025;-78
2023/03/05 01:43:25;;;;;;;0.95;0.95;;;;;;;;;;6226775;28;20475;-78
2023/03/05 01:46:27;;;;;;;0.63;0.63;;;;;;;;;;6238669;28;20025;-78
2023/03/05 01:49:38;;;;;;;0.70;0.70;;;;;;;;;;6244875;28;20087;-78
2023/03/05 01:52:43;;;;;;;0.50;0.50;;;;;;;;;;6244179;28;20017;-78
2023/03/05 01:55:44;;;;;;;2.10;1.95;;;;;;;;;;6248232;28;20025;-78
2023/03/05 01:58:44;;;;;;;0.70;0.70;;;;;;;;;;6244210;28;20399;-79
2023/03/05 02:01:46;;;;;;;1.13;1.13;;;;;;;;;;6248560;28;20017;-77
2023/03/05 02:04:53;;;;;;;0.90;0.90;;;;;;;;;;6245779;28;20021;-78
2023/03/05 02:07:54;;;;;;;0.22;0.22;;;;;;;;;;6244999;28;20018;-79
2023/03/05 02:10:59;;;;;;;0.20;0.20;;;;;;;;;;6244227;28;20026;-78
2023/03/05 02:14:00;;;;;;;0.40;0.40;;;;;;;;;;6250781;28;20493;-78
2023/03/05 02:17:00;;;;;;;0.30;0.30;;;;;;;;;;6244426;28;20021;-78
2023/03/05 02:20:06;;;;;;;0.23;0.23;;;;;;;;;;6246343;28;20268;-78
2023/03/05 02:23:06;;;;;;;0.20;0.20;;;;;;;;;;6251268;28;20048;-78
2023/03/05 02:26:08;;;;;;;3.83;3.57;;;;;;;;;;6244389;28;20021;-78
2023/03/05 02:29:09;;;;;;;0.20;0.20;;;;;;;;;;6256178;28;20064;-78
2023/03/05 02:32:10;;;;;;;0.30;0.30;;;;;;;;;;6244120;28;20475;-77
2023/03/05 02:35:10;;;;;;;2.43;2.33;;;;;;;;;;6247418;28;20032;-78
2023/03/05 02:38:11;;;;;;;1.80;1.70;;;;;;;;;;6248656;28;20104;-78
2023/03/05 02:41:13;;;;;;;0.20;0.20;;;;;;;;;;6247807;28;20040;-78
2023/03/05 02:44:13;;;;;;;0.30;0.30;;;;;;;;;;6245617;28;20108;-78
2023/03/05 02:47:13;;;;;;;0.63;0.63;;;;;;;;;;6234154;28;20025;-77
2023/03/05 02:50:14;;;;;;;0.67;0.67;;;;;;;;;;6249940;28;20018;-78
2023/03/05 02:53:14;;;;;;;0.30;0.30;;;;;;;;;;6244160;28;20021;-77
2023/03/05 02:56:14;;;;;;;1.37;1.27;;;;;;;;;;6262871;28;20045;-78
2023/03/05 02:59:14;;;;;;;0.40;0.40;;;;;;;;;;6248199;28;20092;-78
2023/03/05 03:02:15;;;;;;;0.40;0.40;;;;;;;;;;6256826;28;20016;-78
2023/03/05 03:05:17;;;;;;;1.98;1.88;;;;;;;;;;6260453;28;20029;-78
2023/03/05 03:08:17;;;;;;;3.60;3.30;;;;;;;;;;6249493;28;20053;-78
2023/03/05 03:11:18;;;;;;;1.27;1.27;;;;;;;;;;6255644;28;20494;-78
2023/03/05 03:14:18;;;;;;;0.43;0.43;;;;;;;;;;6253170;28;20096;-78
2023/03/05 03:17:19;;;;;;;1.43;1.43;;;;;;;;;;6246847;28;20021;-78
2023/03/05 03:20:20;;;;;;;0.55;0.55;;;;;;;;;;6254035;28;20502;-78
2023/03/05 03:23:23;;;;;;;0.83;0.83;;;;;;;;;;6228705;28;20035;-78
2023/03/05 03:26:24;;;;;;;6.43;2.55;;;;;;;;;;6252712;28;20371;-78
2023/03/05 03:29:27;;;;;;;1.65;1.58;;;;;;;;;;6247675;28;20076;-78
2023/03/05 03:32:28;;;;;;;2.05;2.00;;;;;;;;;;6254860;28;20079;-78
2023/03/05 03:35:28;;;;;;;0.60;0.60;;;;;;;;;;6247301;28;20029;-78
2023/03/05 03:38:30;;;;;;;4.67;2.70;;;;;;;;;;6245782;28;20039;-78
2023/03/05 03:41:31;;;;;;;2.38;2.25;;;;;;;;;;6247001;28;20489;-78
2023/03/05 03:44:31;;;;;;;1.37;1.37;;;;;;;;;;6249346;28;20036;-78
2023/03/05 03:47:32;;;;;;;0.50;0.50;;;;;;;;;;6245533;28;20466;-79
2023/03/05 03:50:32;;;;;;;0.30;0.30;;;;;;;;;;6254518;28;20464;-78
2023/03/05 03:53:32;;;;;;;2.73;2.43;;;;;;;;;;6232455;28;20040;-78
2023/03/05 03:56:32;;;;;;;2.53;2.43;;;;;;;;;;6246946;28;20101;-79
2023/03/05 03:59:33;;;;;;;1.03;1.03;;;;;;;;;;6250430;28;20025;-79
2023/03/05 04:02:33;;;;;;;2.05;1.95;;;;;;;;;;6256456;28;20395;-79
2023/03/05 04:05:34;;;;;;;4.57;3.83;;;;;;;;;;6256684;28;20065;-79
2023/03/05 04:08:34;;;;;;;0.57;0.55;;;;;;;;;;6246732;28;20017;-79
2023/03/05 04:11:35;;;;;;;4.93;4.53;;;;;;;;;;6253686;28;20087;-79
2023/03/05 04:14:36;;;;;;;18.50;4.07;;;;;;;;;;6257475;28;20175;-79
2023/03/05 04:17:37;;;;;;;0.70;0.70;;;;;;;;;;6249809;28;20445;-79
2023/03/05 04:20:37;;;;;;;0.43;0.43;;;;;;;;;;6245342;28;20033;-79
2023/03/05 04:23:39;;;;;;;1.90;1.80;;;;;;;;;;6246268;28;20331;-79
2023/03/05 04:26:40;;;;;;;1.75;1.65;;;;;;;;;;6253011;28;20519;-79
2023/03/05 04:29:41;;;;;;;1.30;1.30;;;;;;;;;;6238015;28;20399;-79
2023/03/05 04:32:41;;;;;;;0.37;0.37;;;;;;;;;;6253124;28;20024;-79
2023/03/05 04:35:42;;;;;;;0.50;0.50;;;;;;;;;;6248383;28;20137;-79
2023/03/05 04:38:42;;;;;;;0.90;0.90;;;;;;;;;;6236572;28;20475;-79
2023/03/05 04:41:42;;;;;;;0.97;0.97;;;;;;;;;;6245048;28;20017;-79
2023/03/05 04:44:42;;;;;;;1.23;1.23;;;;;;;;;;6255050;28;20375;-79
2023/03/05 04:47:43;;;;;;;0.73;0.73;;;;;;;;;;6233114;28;20021;-79
2023/03/05 04:50:43;;;;;;;4.40;4.07;;;;;;;;;;6243163;28;20022;-79
2023/03/05 04:53:43;;;;;;;4.97;4.67;;;;;;;;;;6236761;28;20060;-78
2023/03/05 04:56:44;;;;;;;0.80;0.80;;;;;;;;;;6260928;28;20036;-78
2023/03/05 04:59:46;;;;;;;3.28;1.70;;;;;;;;;;6257937;28;20071;-79
2023/03/05 05:02:47;;;;;;;1.27;1.27;;;;;;;;;;6246805;28;20021;-79
2023/03/05 05:05:53;;;;;;;3.00;2.80;;;;;;;;;;6255709;28;20025;-78
2023/03/05 05:08:53;;;;;;;1.95;1.85;;;;;;;;;;6252601;28;20314;-79
2023/03/05 05:11:53;;;;;;;2.83;1.40;;;;;;;;;;6238194;28;20017;-79
2023/03/05 05:14:53;;;;;;;1.63;1.63;;;;;;;;;;6244586;28;20037;-79
2023/03/05 05:17:53;;;;;;;3.95;3.75;;;;;;;;;;6245472;28;20025;-79
2023/03/05 05:20:54;;;;;;;3.40;3.20;;;;;;;;;;6246524;28;20033;-79
2023/03/05 05:23:54;;;;;;;1.15;1.15;;;;;;;;;;6244865;28;20021;-79
2023/03/05 05:26:54;;;;;;;5.37;4.90;;;;;;;;;;6244570;28;20409;-79
2023/03/05 05:29:55;;;;;;;2.00;1.90;;;;;;;;;;6244199;28;20025;-78
2023/03/05 05:32:55;;;;;;;0.33;0.33;;;;;;;;;;6244727;28;20557;-79
2023/03/05 05:35:56;;;;;;;2.97;2.80;;;;;;;;;;6244771;28;20392;-79
2023/03/05 05:38:56;;;;;;;1.43;1.37;;;;;;;;;;6244867;28;20028;-79
2023/03/05 05:41:57;;;;;;;4.28;4.03;;;;;;;;;;6242965;28;20021;-79
2023/03/05 05:44:57;;;;;;;1.13;1.13;;;;;;;;;;6244308;28;20025;-79
2023/03/05 05:47:57;;;;;;;1.90;1.50;;;;;;;;;;6244318;28;20025;-79
2023/03/05 05:51:03;;;;;;;2.60;2.40;;;;;;;;;;6245292;28;20029;-79
2023/03/05 05:54:03;;;;;;;2.40;2.30;;;;;;;;;;6248725;28;20494;-79
2023/03/05 05:57:04;;;;;;;3.53;2.53;;;;;;;;;;6248437;28;20018;-79
2023/03/05 06:00:06;;;;;;;4.87;2.97;;;;;;;;;;6247315;28;20022;-79
2023/03/05 06:03:06;;;;;;;5.45;5.05;;;;;;;;;;6248321;28;20017;-79
2023/03/05 06:06:08;;;;;;;2.10;2.00;;;;;;;;;;6245835;28;20017;-78
2023/03/05 06:09:09;;;;;;;4.53;4.30;;;;;;;;;;6247630;28;20021;-80
2023/03/05 06:12:10;;;;;;;2.05;1.98;;;;;;;;;;6255514;28;20103;-79
2023/03/05 06:15:10;;;;;;;11.75;4.45;;;;;;;;;;6248970;28;20105;-79
2023/03/05 06:18:10;;;;;;;4.50;4.30;;;;;;;;;;6239953;28;20032;-79
2023/03/05 06:21:12;;;;;;;6.63;2.37;;;;;;;;;;6245431;28;20017;-79
2023/03/05 06:24:13;;;;;;;1.67;1.42;;;;;;;;;;6246753;28;20029;-79
2023/03/05 06:27:13;;;;;;;1.33;1.23;;;;;;;;;;6248917;28;20024;-79
2023/03/05 06:30:13;;;;;;;2.67;2.57;;;;;;;;;;6249054;28;20022;-79
2023/03/05 06:33:13;;;;;;;0.30;0.30;;;;;;;;;;6257759;28;20423;-79
2023/03/05 06:36:15;;;;;;;0.43;0.43;;;;;;;;;;6239738;28;20451;-79
2023/03/05 06:39:15;;;;;;;1.45;1.45;;;;;;;;;;6249143;28;20030;-80
2023/03/05 06:42:18;;;;;;;4.70;4.40;;;;;;;;;;6263857;28;20017;-80
2023/03/05 06:45:18;;;;;;;5.93;5.43;;;;;;;;;;6253236;28;20472;-79
2023/03/05 06:48:19;;;;;;;1.48;1.45;;;;;;;;;;6248701;28;20033;-79
2023/03/05 06:51:23;;;;;;;3.40;3.13;;;;;;;;;;6252165;28;20816;-79
2023/03/05 06:54:23;;;;;;;3.85;3.65;;;;;;;;;;6235357;28;20480;-79
2023/03/05 06:57:24;;;;;;;4.25;3.90;;;;;;;;;;6232548;28;20063;-79
2023/03/05 07:00:28;;;;;;;8.13;5.97;;;;;;;;;;6230491;28;20364;-79
2023/03/05 07:03:28;;;;;;;2.78;2.58;;;;;;;;;;6231400;28;20029;-79
2023/03/05 07:06:32;;;;;;;1.55;1.50;;;;;;;;;;6243258;28;20028;-80
2023/03/05 07:09:32;;;;;;;5.03;4.82;;;;;;;;;;6231216;28;20025;-80
2023/03/05 07:12:33;;;;;;;0.32;0.32;;;;;;;;;;6240253;28;20049;-80
2023/03/05 07:15:36;;;;;;;3.23;3.07;;;;;;;;;;6249147;28;20022;-81
2023/03/05 07:18:36;;;;;;;2.30;2.20;;;;;;;;;;6248298;28;20107;-81
2023/03/05 07:21:37;;;;;;;4.23;4.03;;;;;;;;;;6253040;28;20032;-80
2023/03/05 07:24:37;;;;;;;7.30;5.13;;;;;;;;;;6252717;28;20053;-80
2023/03/05 07:27:37;;;;;;;1.45;1.45;;;;;;;;;;6253805;28;20012;-81
2023/03/05 07:30:37;;;;;;;5.77;5.33;;;;;;;;;;6247339;28;20479;-80
2023/03/05 07:33:37;;;;;;;5.68;4.78;;;;;;;;;;6241795;28;20528;-81
2023/03/05 07:36:38;;;;;;;1.30;1.30;;;;;;;;;;6241260;28;20026;-80
2023/03/05 07:39:38;;;;;;;2.83;2.73;;;;;;;;;;6226970;28;20029;-80
2023/03/05 07:42:38;;;;;;;5.03;4.63;;;;;;;;;;6248003;28;20063;-81
2023/03/05 07:45:42;;;;;;;6.80;5.10;;;;;;;;;;6250364;28;20640;-81
2023/03/05 07:48:42;;;;;;;4.63;4.18;;;;;;;;;;6246013;28;20026;-80
2023/03/05 07:51:43;;;;;;;2.60;2.50;;;;;;;;;;6240008;28;20024;-80
2023/03/05 07:54:43;;;;;;;0.53;0.53;;;;;;;;;;6242937;28;20018;-80
2023/03/05 07:57:45;;;;;;;1.60;1.50;;;;;;;;;;6249652;28;20450;-80
2023/03/05 08:00:45;;;;;;;3.25;3.05;;;;;;;;;;6249428;28;20426;-79
2023/03/05 08:03:45;;;;;;;3.40;2.95;;;;;;;;;;6245850;28;20112;-78
2023/03/05 08:06:45;;;;;;;4.33;3.13;;;;;;;;;;6242508;28;20022;-79
2023/03/05 08:09:47;;;;;;;3.47;3.27;;;;;;;;;;6237236;28;20522;-78
2023/03/05 08:12:47;;;;;;;4.55;4.18;;;;;;;;;;6217552;28;20585;-79
2023/03/05 08:15:47;;;;;;;1.57;1.57;;;;;;;;;;6256223;28;20100;-79
2023/03/05 08:18:47;;;;;;;4.53;4.20;;;;;;;;;;6254459;28;20415;-79
2023/03/05 08:21:48;;;;;;;2.73;2.03;;;;;;;;;;6249596;28;20025;-79
2023/03/05 08:24:49;;;;;;;2.30;2.10;;;;;;;;;;6252545;28;20014;-79
2023/03/05 08:27:49;;;;;;;3.38;3.25;;;;;;;;;;6235427;28;20036;-78
2023/03/05 08:30:51;;;;;;;3.40;3.10;;;;;;;;;;6227781;28;20021;-79
2023/03/05 08:33:52;;;;;;;4.72;4.38;;;;;;;;;;6242814;28;20029;-79
2023/03/05 08:36:52;;;;;;;2.30;2.00;;;;;;;;;;6243821;28;20503;-79
2023/03/05 08:39:54;;;;;;;1.53;1.50;;;;;;;;;;6244478;28;20018;-78
2023/03/05 08:42:54;;;;;;;;;;;;;;;;;;6250149;28;20022;-78
2023/03/05 08:45:54;;;;;;;3.42;2.05;;;;;;;;;;6248054;28;19909;-77
2023/03/05 08:48:56;;;;;;;0.73;0.73;;;;;;;;;;6251493;28;20120;-77
2023/03/05 08:51:57;;;;;;;1.95;1.88;;;;;;;;;;6252945;28;20021;-78
2023/03/05 08:54:57;;;;;;;2.87;2.67;;;;;;;;;;6246635;28;20024;-79
2023/03/05 08:57:58;;;;;;;4.27;3.93;;;;;;;;;;6241093;28;20021;-78
2023/03/05 09:00:58;;;;;;;5.07;4.70;;;;;;;;;;6242522;28;20079;-78
2023/03/05 09:03:59;;;;;;;4.13;3.83;;;;;;;;;;6253547;28;20039;-77
2023/03/05 09:07:01;;;;;;;1.53;1.53;;;;;;;;;;6242651;28;20025;-77
2023/03/05 09:10:03;;;;;;;2.70;2.50;;;;;;;;;;6244159;28;20017;-77
2023/03/05 09:13:03;;;;;;;4.30;2.67;;;;;;;;;;6252503;28;20041;-77
2023/03/05 09:16:04;;;;;;;6.00;5.63;;;;;;;;;;6249706;28;20021;-77
2023/03/05 09:19:05;;;;;;;2.63;2.47;;;;;;;;;;6244070;28;20013;-78
2023/03/05 09:22:05;;;;;;;4.00;3.70;;;;;;;;;;6244295;28;20388;-79
2023/03/05 09:25:07;;;;;;;7.57;4.90;;;;;;;;;;6251780;28;20037;-78
2023/03/05 09:28:09;;;;;;;1.73;1.42;;;;;;;;;;6248170;28;20052;-78
2023/03/05 09:31:11;;;;;;;3.47;3.30;;;;;;;;;;6245186;28;20101;-77
2023/03/05 09:34:11;;;;;;;;;;;;;;;;;;6242177;28;20029;-79
2023/03/05 09:37:11;;;;;;;3.53;2.70;;;;;;;;;;6250253;28;19909;-78
2023/03/05 09:40:21;;;;;;;2.58;2.45;;;;;;;;;;6246763;28;20022;-80
2023/03/05 09:43:44;;;;;;;4.88;4.55;;;;;;;;;;6248328;28;20025;-78
2023/03/05 09:46:56;;;;;;;2.45;2.25;;;;;;;;;;6244894;28;20060;-78
2023/03/05 09:50:01;;;;;;;3.58;2.70;;;;;;;;;;6248410;28;20095;-78
2023/03/05 09:53:11;;;;;;;4.38;1.70;;;;;;;;;;6238982;28;20013;-79
2023/03/05 09:56:14;;;;;;;3.15;2.88;;;;;;;;;;6244378;28;20744;-78
2023/03/05 09:59:26;;;;;;;2.45;2.35;;;;;;;;;;6244463;28;20017;-78
2023/03/05 10:02:35;;;;;;;3.90;3.60;;;;;;;;;;6241544;28;20049;-80
2023/03/05 10:05:54;;;;;;;4.13;3.78;;;;;;;;;;6249788;28;20021;-80
2023/03/05 10:09:28;;;;;;;1.25;1.25;;;;;;;;;;6241805;28;20022;-80
2023/03/05 10:12:42;;;;;;;8.63;4.65;;;;;;;;;;6220468;28;20739;-81
2023/03/05 10:16:12;;;;;;;2.80;2.70;;;;;;;;;;6242814;28;20034;-80
2023/03/05 10:19:15;;;;;;;2.78;2.45;;;;;;;;;;6191089;28;20072;-81
2023/03/05 10:22:39;;;;;;;3.13;2.17;;;;;;;;;;6248574;28;20038;-83
2023/03/05 10:25:57;;;;;;;4.88;4.40;;;;;;;;;;6247854;28;20500;-82
2023/03/05 10:29:06;;;;;;;1.42;1.38;;;;;;;;;;6239100;28;20391;-81
2023/03/05 10:32:28;;;;;;;9.10;7.68;;;;;;;;;;6245710;28;20013;-83
2023/03/05 10:35:52;;;;;;;3.40;1.85;;;;;;;;;;6252595;28;20105;-79
2023/03/05 10:39:02;;;;;;;2.15;1.98;;;;;;;;;;6248613;28;20021;-79
2023/03/05 10:42:19;;;;;;;0.95;0.95;;;;;;;;;;6243328;28;20021;-78
2023/03/05 10:45:29;;;;;;;3.55;3.28;;;;;;;;;;6226714;28;20026;-78
2023/03/05 10:48:48;;;;;;;1.70;1.60;;;;;;;;;;6225054;28;20021;-79
2023/03/05 10:51:48;;;;;;;2.63;2.50;;;;;;;;;;6256615;28;20024;-77
2023/03/05 10:54:48;;;;;;;2.47;2.37;;;;;;;;;;6248787;28;20024;-78
2023/03/05 10:57:49;;;;;;;2.63;2.53;;;;;;;;;;6241857;28;20029;-78
2023/03/05 11:01:04;;;;;;;11.97;6.30;;;;;;;;;;6247324;28;20026;-78
2023/03/05 11:04:06;;;;;;;8.68;3.50;;;;;;;;;;6249755;28;20442;-77
2023/03/05 11:07:18;;;;;;;2.83;2.63;;;;;;;;;;6249364;28;20009;-78
2023/03/05 11:10:20;;;;;;;2.65;2.55;;;;;;;;;;6251418;28;20065;-79
2023/03/05 11:13:26;;;;;;;4.88;4.53;;;;;;;;;;6248962;28;20507;-78
2023/03/05 11:16:28;;;;;;;11.25;5.75;;;;;;;;;;6228367;28;20033;-78
2023/03/05 11:19:31;;;;;;;1.33;1.33;;;;;;;;;;6255478;28;20403;-78
2023/03/05 11:22:34;;;;;;;2.80;2.70;;;;;;;;;;6260041;28;20040;-77
2023/03/05 11:25:47;;;;;;;2.05;1.95;;;;;;;;;;6248426;28;20025;-78
2023/03/05 11:28:53;;;;;;;2.47;2.30;;;;;;;;;;6249054;28;20028;-79
2023/03/05 11:31:53;;;;;;;3.13;2.85;;;;;;;;;;6247451;28;20021;-78
2023/03/05 11:34:54;;;;;;;3.20;3.03;;;;;;;;;;6249571;28;20033;-79
2023/03/05 11:38:02;;;;;;;1.63;1.63;;;;;;;;;;6252682;28;20064;-77
2023/03/05 11:41:02;;;;;;;2.08;1.98;;;;;;;;;;6249265;28;20029;-78
2023/03/05 11:44:06;;;;;;;4.67;4.27;;;;;;;;;;6233133;28;20027;-78
2023/03/05 11:47:25;;;;;;;3.47;2.90;;;;;;;;;;6244879;28;20395;-77
2023/03/05 11:50:26;;;;;;;4.35;2.60;;;;;;;;;;6251656;28;20075;-77
2023/03/05 11:53:28;;;;;;;2.03;1.95;;;;;;;;;;6248081;28;20364;-77
2023/03/05 11:56:38;;;;;;;0.50;0.50;;;;;;;;;;6243165;28;20026;-78
2023/03/05 11:59:39;;;;;;;1.63;1.52;;;;;;;;;;6237726;28;20029;-78
2023/03/05 12:02:39;;;;;;;1.65;1.65;;;;;;;;;;6245022;28;20067;-78
2023/03/05 12:05:45;;;;;;;4.40;3.03;;;;;;;;;;6249993;28;20547;-78
2023/03/05 12:08:49;;;;;;;0.95;0.95;;;;;;;;;;6244241;28;20021;-78
2023/03/05 12:11:54;;;;;;;2.33;2.13;;;;;;;;;;6240525;28;20021;-78
2023/03/05 12:14:58;;;;;;;0.82;0.82;;;;;;;;;;6242899;28;20033;-79
2023/03/05 12:17:59;;;;;;;4.30;3.92;;;;;;;;;;6249154;28;20025;-77
2023/03/05 12:21:06;;;;;;;0.60;0.60;;;;;;;;;;6238274;28;20040;-79
2023/03/05 12:24:24;;;;;;;1.17;1.05;;;;;;;;;;6246862;28;20391;-79
2023/03/05 12:27:32;;;;;;;1.40;1.40;;;;;;;;;;6259538;28;20034;-80
2023/03/05 12:30:32;;;;;;;3.50;2.67;;;;;;;;;;6250748;28;20483;-78
2023/03/05 12:33:40;;;;;;;1.75;1.67;;;;;;;;;;6257409;28;20029;-78
2023/03/05 12:36:41;;;;;;;0.38;0.38;;;;;;;;;;6249820;28;20025;-78
2023/03/05 12:39:48;;;;;;;1.00;0.95;;;;;;;;;;6238527;28;20100;-79
2023/03/05 12:42:51;;;;;;;0.88;0.88;;;;;;;;;;6249015;28;20100;-78
2023/03/05 12:46:11;;;;;;;0.90;0.90;;;;;;;;;;6247866;28;20124;-78
2023/03/05 12:49:18;;;;;;;0.60;0.60;;;;;;;;;;6239468;28;20018;-78
2023/03/05 12:52:22;;;;;;;1.50;1.50;;;;;;;;;;6254146;28;20373;-79
2023/03/05 12:55:23;;;;;;;0.93;0.93;;;;;;;;;;6248877;28;20028;-77
2023/03/05 12:58:29;;;;;;;2.95;1.75;;;;;;;;;;6249722;28;20044;-79
2023/03/05 13:01:42;;;;;;;1.60;1.50;;;;;;;;;;6260354;28;20036;-79
2023/03/05 13:04:44;;;;;;;0.85;0.85;;;;;;;;;;6249170;28;21461;-79
2023/03/05 13:07:44;;;;;;;;;;;;;;;;;;6249260;28;20064;-78
2023/03/05 13:10:50;;;;;;;3.08;2.80;;;;;;;;;;6244322;28;19908;-78
2023/03/05 13:13:54;;;;;;;0.63;0.63;;;;;;;;;;6245938;28;20064;-78
2023/03/05 13:16:54;;;;;;;0.98;0.98;;;;;;;;;;6247393;28;20036;-78
2023/03/05 13:19:55;;;;;;;0.40;0.40;;;;;;;;;;6243086;28;20505;-78
2023/03/05 13:23:17;;;;;;;1.03;1.03;;;;;;;;;;6243715;28;20144;-79
2023/03/05 13:26:19;;;;;;;1.25;0.70;;;;;;;;;;6241782;28;20040;-77
2023/03/05 13:29:25;;;;;;;0.80;0.80;;;;;;;;;;6249379;28;20484;-77
2023/03/05 13:32:26;;;;;;;0.80;0.80;;;;;;;;;;6224365;28;20021;-77
2023/03/05 13:35:27;;;;;;;0.82;0.82;;;;;;;;;;6243305;28;20111;-77
2023/03/05 13:38:27;;;;;;;0.20;0.20;;;;;;;;;;6246016;28;20025;-77
2023/03/05 13:41:28;;;;;;;0.60;0.60;;;;;;;;;;6238700;28;20101;-80
2023/03/05 13:44:40;;;;;;;3.83;3.53;;;;;;;;;;6251049;28;20107;-81
2023/03/05 13:47:49;;;;;;;0.35;0.35;;;;;;;;;;6244268;28;20502;-77
2023/03/05 13:50:57;;;;;;;0.30;0.30;;;;;;;;;;6243661;28;20018;-78
2023/03/05 13:53:57;;;;;;;0.40;0.40;;;;;;;;;;6243580;28;20025;-77
2023/03/05 13:57:00;;;;;;;1.37;1.30;;;;;;;;;;6242399;28;20028;-77
2023/03/05 14:00:01;;;;;;;0.80;0.80;;;;;;;;;;6242465;28;20029;-78
2023/03/05 14:03:09;;;;;;;1.07;1.07;;;;;;;;;;6246104;28;20057;-78
2023/03/05 14:06:10;;;;;;;1.38;0.68;;;;;;;;;;6243645;28;20036;-78
2023/03/05 14:09:37;;;;;;;1.00;1.00;;;;;;;;;;6242680;28;20017;-77
2023/03/05 14:12:39;;;;;;;0.60;0.60;;;;;;;;;;6239295;28;20050;-78
2023/03/05 14:15:49;;;;;;;3.03;2.78;;;;;;;;;;6236803;28;20029;-78
2023/03/05 14:18:52;;;;;;;5.25;2.40;;;;;;;;;;6242273;28;20033;-78
2023/03/05 14:21:52;;;;;;;2.55;2.40;;;;;;;;;;6242682;28;20025;-78
2023/03/05 14:24:52;;;;;;;5.40;3.00;;;;;;;;;;6241375;28;20401;-77
2023/03/05 14:27:53;;;;;;;1.50;1.50;;;;;;;;;;6241820;28;20047;-78
2023/03/05 14:30:55;;;;;;;2.07;2.00;;;;;;;;;;6251665;28;20021;-78
2023/03/05 14:34:03;;;;;;;1.30;1.30;;;;;;;;;;6244852;28;20028;-78
2023/03/05 14:37:16;;;;;;;2.88;2.67;;;;;;;;;;6246850;28;20167;-77
2023/03/05 14:40:18;;;;;;;0.70;0.70;;;;;;;;;;6251436;28;20022;-78
2023/03/05 14:43:19;;;;;;;0.60;0.60;;;;;;;;;;6251464;28;20025;-78
2023/03/05 14:46:21;;;;;;;1.25;1.25;;;;;;;;;;6248942;28;20426;-79
2023/03/05 14:49:21;;;;;;;3.80;1.80;;;;;;;;;;6247174;28;20471;-77
2023/03/05 14:52:22;;;;;;;1.03;1.03;;;;;;;;;;6247987;28;20024;-77
2023/03/05 14:55:26;;;;;;;1.20;1.17;;;;;;;;;;6241063;28;20467;-77
2023/03/05 14:58:28;;;;;;;0.30;0.30;;;;;;;;;;6247374;28;20075;-78
2023/03/05 15:01:28;;;;;;;3.00;2.85;;;;;;;;;;6250749;28;20056;-78
2023/03/05 15:04:28;;;;;;;2.43;2.33;;;;;;;;;;6243696;28;20022;-77
2023/03/05 15:07:30;;;;;;;1.87;1.80;;;;;;;;;;6240518;28;20108;-78
2023/03/05 15:10:30;;;;;;;3.65;2.85;;;;;;;;;;6248824;28;20127;-77
2023/03/05 15:13:30;;;;;;;2.60;2.50;;;;;;;;;;6246760;28;20380;-78
2023/03/05 15:16:31;;;;;;;6.45;5.80;;;;;;;;;;6246772;28;20045;-77
2023/03/05 15:19:31;;;;;;;1.57;1.57;;;;;;;;;;6246567;28;20467;-78
2023/03/05 15:22:35;;;;;;;5.23;4.90;;;;;;;;;;6246091;28;20013;-78
2023/03/05 15:25:35;;;;;;;4.15;2.97;;;;;;;;;;6245928;28;20076;-77
2023/03/05 15:28:38;;;;;;;1.13;1.13;;;;;;;;;;6246375;28;20018;-77
2023/03/05 15:31:39;;;;;;;2.47;1.98;;;;;;;;;;6228333;28;20380;-77
2023/03/05 15:34:39;;;;;;;2.03;1.93;;;;;;;;;;6228642;28;20103;-77
2023/03/05 15:37:39;;;;;;;3.13;2.97;;;;;;;;;;6245925;28;20037;-78
2023/03/05 15:40:42;;;;;;;0.30;0.30;;;;;;;;;;6243988;28;20025;-77
2023/03/05 15:43:43;;;;;;;1.75;1.67;;;;;;;;;;6240263;28;20044;-77
2023/03/05 15:46:43;;;;;;;3.37;2.90;;;;;;;;;;6248336;28;20365;-77
2023/03/05 15:49:43;;;;;;;2.47;2.37;;;;;;;;;;6248872;28;20337;-78
2023/03/05 15:52:43;;;;;;;8.65;2.75;;;;;;;;;;6235669;28;20425;-77
2023/03/05 15:55:45;;;;;;;4.03;3.30;;;;;;;;;;6246555;28;20029;-77
2023/03/05 15:58:47;;;;;;;0.50;0.50;;;;;;;;;;6236511;28;20025;-77
2023/03/05 16:01:48;;;;;;;2.03;1.92;;;;;;;;;;6246443;28;20056;-78
2023/03/05 16:04:48;;;;;;;4.65;3.17;;;;;;;;;;6246264;28;20040;-77
2023/03/05 16:07:49;;;;;;;7.27;2.87;;;;;;;;;;6248652;28;20373;-78
2023/03/05 16:10:50;;;;;;;4.97;3.17;;;;;;;;;;6251108;28;20022;-77
2023/03/05 16:13:50;;;;;;;6.10;5.67;;;;;;;;;;6246805;28;20050;-78
2023/03/05 16:16:54;;;;;;;4.72;4.32;;;;;;;;;;6227298;28;20478;-79
2023/03/05 16:19:54;;;;;;;1.75;1.45;;;;;;;;;;6259728;28;20084;-76
2023/03/05 16:22:54;;;;;;;1.40;1.40;;;;;;;;;;6246948;28;20072;-78
2023/03/05 16:25:55;;;;;;;3.67;3.13;;;;;;;;;;6246756;28;20088;-76
2023/03/05 16:28:55;;;;;;;1.83;1.73;;;;;;;;;;6250223;28;20478;-78
2023/03/05 16:31:55;;;;;;;3.60;3.40;;;;;;;;;;6256769;28;20448;-77
2023/03/05 16:34:56;;;;;;;2.80;1.70;;;;;;;;;;6270112;28;20453;-78
2023/03/05 16:37:58;;;;;;;0.43;0.43;;;;;;;;;;6252251;28;20598;-77
2023/03/05 16:40:58;;;;;;;1.17;1.17;;;;;;;;;;6249877;28;20029;-78
2023/03/05 16:43:59;;;;;;;2.42;1.48;;;;;;;;;;6249828;28;20096;-78
2023/03/05 16:46:59;;;;;;;1.70;1.70;;;;;;;;;;6250657;28;20017;-79
2023/03/05 16:50:01;;;;;;;1.23;1.23;;;;;;;;;;6249678;28;20125;-79
2023/03/05 16:53:02;;;;;;;5.13;4.32;;;;;;;;;;6245083;28;20017;-78
2023/03/05 16:56:04;;;;;;;2.35;2.25;;;;;;;;;;6246114;28;20059;-77
2023/03/05 16:59:04;;;;;;;2.53;2.33;;;;;;;;;;6246151;28;20030;-78
2023/03/05 17:02:04;;;;;;;2.83;2.63;;;;;;;;;;6252535;28;20350;-78
2023/03/05 17:05:07;;;;;;;0.40;0.40;;;;;;;;;;6234858;28;20125;-79
2023/03/05 17:08:09;;;;;;;0.70;0.70;;;;;;;;;;6245414;28;20013;-78
2023/03/05 17:11:09;;;;;;;1.33;1.27;;;;;;;;;;6260479;28;20062;-77
2023/03/05 17:14:11;;;;;;;0.53;0.53;;;;;;;;;;6262457;28;20264;-78
2023/03/05 17:17:11;;;;;;;1.55;1.45;;;;;;;;;;6266334;28;20486;-78
2023/03/05 17:20:12;;;;;;;0.32;0.32;;;;;;;;;;6263691;28;20027;-78
2023/03/05 17:23:12;;;;;;;3.33;2.20;;;;;;;;;;6259106;28;20379;-78
2023/03/05 17:26:14;;;;;;;0.33;0.33;;;;;;;;;;6263149;28;20329;-77
2023/03/05 17:29:14;;;;;;;3.63;2.95;;;;;;;;;;6251150;28;20018;-78
2023/03/05 17:32:15;;;;;;;1.63;1.52;;;;;;;;;;6257779;28;20079;-78
2023/03/05 17:35:19;;;;;;;2.00;1.70;;;;;;;;;;6251181;28;20025;-78
2023/03/05 17:38:19;;;;;;;1.48;1.45;;;;;;;;;;6253331;28;20025;-78
2023/03/05 17:41:19;;;;;;;0.75;0.75;;;;;;;;;;6249155;28;20429;-78
2023/03/05 17:44:20;;;;;;;0.20;0.20;;;;;;;;;;6242668;28;20061;-78
2023/03/05 17:47:22;;;;;;;18.90;7.80;;;;;;;;;;6257333;28;20021;-78
2023/03/05 17:50:22;;;;;;;11.55;8.70;;;;;;;;;;6257742;28;20481;-77
2023/03/05 17:53:23;;;;;;;4.23;3.93;;;;;;;;;;6250525;28;20183;-78
2023/03/05 17:56:24;;;;;;;2.85;2.75;;;;;;;;;;6249230;28;20392;-78
2023/03/05 17:59:25;;;;;;;1.60;1.50;;;;;;;;;;6255688;28;20064;-78
2023/03/05 18:02:26;;;;;;;6.50;5.57;;;;;;;;;;6243853;28;20018;-78
2023/03/05 18:05:27;;;;;;;;;;;;;;;;;;6256616;28;20132;-79
2023/03/05 18:08:29;;;;;;;1.38;1.33;;;;;;;;;;6236225;28;19908;-80
2023/03/05 18:11:29;;;;;;;0.45;0.45;;;;;;;;;;6231865;28;20051;-78
2023/03/05 18:14:51;;;;;;;1.93;1.83;;;;;;;;;;6252441;28;20065;-79